Hansa Rendsburg — A8CF4 — position and weather

sailwx.info

Track history (hours):
 
Tides and Currents Weather Stations Pressure Air Temp Water Temp Dewpoint Dewpoint Depression Visibility Wind Speed Wind Dir Waves Ship Positions

Hansa Rendsburg

Last reported at 2015-Aug-31 14:32 UTC. Time now 2015-Sep-03 02:32 UTC.
Position N 38°57' E 117°53'.

Type: Ship (hazmat cat A). MMSI: 636090636.

Date/timePositionNaut miles runAvg speedWind from/ knotsBaromVisibWave heightAir tempDewpointWater temp
2015-Aug-31 14:32N 38°57' E 117°53'5 5.1
2015-Aug-31 13:32N 39°00' E 117°47'0 0.0
2015-Aug-31 12:32N 39°00' E 117°47'0 0.0
2015-Aug-31 11:20N 39°00' E 117°47'0 0.0
2015-Aug-31 10:32N 39°00' E 117°47'0 0.0
2015-Aug-31 09:32N 39°00' E 117°47'0 0.0
2015-Aug-31 08:32N 39°00' E 117°47'0 0.0
2015-Aug-31 07:32N 39°00' E 117°47'0 0.0
2015-Aug-31 06:32N 39°00' E 117°47'0 0.0
2015-Aug-31 05:32N 39°00' E 117°47'0 0.0
2015-Aug-31 04:31N 39°00' E 117°47'0 0.0
2015-Aug-31 03:31N 39°00' E 117°47'0 0.0
2015-Aug-31 02:25N 39°00' E 117°47'0 0.0
2015-Aug-31 01:31N 39°00' E 117°47'0 0.0
2015-Aug-31 00:31N 39°00' E 117°47'0 0.0
2015-Aug-30 23:31N 39°00' E 117°47'0 0.0
2015-Aug-30 22:25N 39°00' E 117°47'0 0.0
2015-Aug-30 21:07N 39°00' E 117°47'0 0.0
2015-Aug-30 20:19N 39°00' E 117°47'0 0.0
2015-Aug-30 19:25N 39°00' E 117°47'0 0.0
2015-Aug-30 18:31N 39°00' E 117°47'7 7.4
2015-Aug-30 17:34N 38°57' E 117°55'175 7.5
2015-Aug-29 18:17N 37°54' E 121°23'912.0
2015-Aug-29 17:33N 37°45' E 121°26'1010.4
2015-Aug-29 16:33N 37°35' E 121°25'2 1.9
2015-Aug-29 15:32N 37°35' E 121°23'0 0.0
2015-Aug-29 14:32N 37°35' E 121°23'0 0.0
2015-Aug-29 13:32N 37°35' E 121°23'0 0.0
2015-Aug-29 12:32N 37°35' E 121°23'0 0.0
2015-Aug-29 11:32N 37°35' E 121°23'0 0.0
2015-Aug-29 10:32N 37°35' E 121°23'0 0.0
2015-Aug-29 09:31N 37°35' E 121°23'0 0.0
2015-Aug-29 08:31N 37°35' E 121°23'0 0.0
2015-Aug-29 07:31N 37°35' E 121°23'0 0.0
2015-Aug-29 06:31N 37°35' E 121°23'0 0.2
2015-Aug-29 05:33N 37°35' E 121°23'7 7.4
2015-Aug-29 04:33N 37°39' E 121°31'1010.4
2015-Aug-29 03:33N 37°40' E 121°44'1514.9
2015-Aug-29 02:33N 37°41' E 122°03'1716.8
2015-Aug-29 01:33N 37°43' E 122°24'2517.1
2015-Aug-29 00:07N 37°40' E 122°54'1118.0
2015-Aug-28 23:30N 37°35' E 123°07'1818.4
2015-Aug-28 22:33N 37°20' E 123°18'1919.4
2015-Aug-28 21:33N 37°02' E 123°28'2019.3
2015-Aug-28 20:31N 36°44' E 123°38'  
2015-Aug-23 05:10N 38°57' E 117°55'711.0
2015-Aug-23 04:34N 38°59' E 117°47'1 0.8
2015-Aug-23 03:33N 39°00' E 117°47'0 0.0
2015-Aug-23 02:33N 39°00' E 117°47'0 0.0
2015-Aug-23 00:27N 39°00' E 117°47'0 0.0
2015-Aug-22 23:33N 39°00' E 117°47'0 0.0
2015-Aug-22 22:21N 39°00' E 117°47'0 0.0
2015-Aug-22 21:27N 39°00' E 117°47'0 0.0
2015-Aug-22 20:27N 39°00' E 117°47'0 0.0
2015-Aug-22 19:33N 39°00' E 117°47'0 0.0
2015-Aug-22 18:33N 39°00' E 117°47'0 0.0
2015-Aug-22 17:33N 39°00' E 117°47'0 0.0
2015-Aug-22 16:27N 39°00' E 117°47'0 0.0
2015-Aug-22 15:33N 39°00' E 117°47'0 0.0
2015-Aug-22 14:33N 39°00' E 117°47'0 0.0
2015-Aug-22 13:33N 39°00' E 117°47'0 0.0
2015-Aug-22 12:33N 39°00' E 117°47'0 0.0
2015-Aug-22 11:27N 39°00' E 117°47'0 0.0
2015-Aug-22 10:33N 39°00' E 117°47'0 0.0
2015-Aug-22 09:21N 39°00' E 117°47'0 0.0
2015-Aug-22 08:33N 39°00' E 117°47'0 0.0
2015-Aug-22 07:33N 39°00' E 117°47'0 0.0
2015-Aug-22 06:33N 39°00' E 117°47'5 4.6
2015-Aug-22 05:34N 38°58' E 117°52'15614.2
2015-Aug-21 18:33N 38°29' E 121°09'1817.5
2015-Aug-21 17:32N 38°13' E 121°16'1717.3
2015-Aug-21 16:33N 37°56' E 121°23'1515.6
2015-Aug-21 15:33N 37°41' E 121°27'7 6.9
2015-Aug-21 14:33N 37°35' E 121°23'  
Track history (hours):
 
Tides and Currents Weather Stations Pressure Air Temp Water Temp Dewpoint Dewpoint Depression Visibility Wind Speed Wind Dir Waves Ship Positions

Hansa Rendsburg

Last reported at 2015-Aug-31 14:32 UTC. Time now 2015-Sep-03 02:32 UTC.
Position N 38°57' E 117°53'.

Type: Ship (hazmat cat A). MMSI: 636090636.

Date/timePositionNaut miles runAvg speedWind from/ knotsBaromVisibWave heightAir tempDewpointWater temp
2015-Aug-31 14:32N 38°57' E 117°53'5 5.1
2015-Aug-31 13:32N 39°00' E 117°47'0 0.0
2015-Aug-31 12:32N 39°00' E 117°47'0 0.0
2015-Aug-31 11:20N 39°00' E 117°47'0 0.0
2015-Aug-31 10:32N 39°00' E 117°47'0 0.0
2015-Aug-31 09:32N 39°00' E 117°47'0 0.0
2015-Aug-31 08:32N 39°00' E 117°47'0 0.0
2015-Aug-31 07:32N 39°00' E 117°47'0 0.0
2015-Aug-31 06:32N 39°00' E 117°47'0 0.0
2015-Aug-31 05:32N 39°00' E 117°47'0 0.0
2015-Aug-31 04:31N 39°00' E 117°47'0 0.0
2015-Aug-31 03:31N 39°00' E 117°47'0 0.0
2015-Aug-31 02:25N 39°00' E 117°47'0 0.0
2015-Aug-31 01:31N 39°00' E 117°47'0 0.0
2015-Aug-31 00:31N 39°00' E 117°47'0 0.0
2015-Aug-30 23:31N 39°00' E 117°47'0 0.0
2015-Aug-30 22:25N 39°00' E 117°47'0 0.0
2015-Aug-30 21:07N 39°00' E 117°47'0 0.0
2015-Aug-30 20:19N 39°00' E 117°47'0 0.0
2015-Aug-30 19:25N 39°00' E 117°47'0 0.0
2015-Aug-30 18:31N 39°00' E 117°47'7 7.4
2015-Aug-30 17:34N 38°57' E 117°55'175 7.5
2015-Aug-29 18:17N 37°54' E 121°23'912.0
2015-Aug-29 17:33N 37°45' E 121°26'1010.4
2015-Aug-29 16:33N 37°35' E 121°25'2 1.9
2015-Aug-29 15:32N 37°35' E 121°23'0 0.0
2015-Aug-29 14:32N 37°35' E 121°23'0 0.0
2015-Aug-29 13:32N 37°35' E 121°23'0 0.0
2015-Aug-29 12:32N 37°35' E 121°23'0 0.0
2015-Aug-29 11:32N 37°35' E 121°23'0 0.0
2015-Aug-29 10:32N 37°35' E 121°23'0 0.0
2015-Aug-29 09:31N 37°35' E 121°23'0 0.0
2015-Aug-29 08:31N 37°35' E 121°23'0 0.0
2015-Aug-29 07:31N 37°35' E 121°23'0 0.0
2015-Aug-29 06:31N 37°35' E 121°23'0 0.2
2015-Aug-29 05:33N 37°35' E 121°23'7 7.4
2015-Aug-29 04:33N 37°39' E 121°31'1010.4
2015-Aug-29 03:33N 37°40' E 121°44'1514.9
2015-Aug-29 02:33N 37°41' E 122°03'1716.8
2015-Aug-29 01:33N 37°43' E 122°24'2517.1
2015-Aug-29 00:07N 37°40' E 122°54'1118.0
2015-Aug-28 23:30N 37°35' E 123°07'1818.4
2015-Aug-28 22:33N 37°20' E 123°18'1919.4
2015-Aug-28 21:33N 37°02' E 123°28'2019.3
2015-Aug-28 20:31N 36°44' E 123°38'  
2015-Aug-23 05:10N 38°57' E 117°55'711.0
2015-Aug-23 04:34N 38°59' E 117°47'1 0.8
2015-Aug-23 03:33N 39°00' E 117°47'0 0.0
2015-Aug-23 02:33N 39°00' E 117°47'0 0.0
2015-Aug-23 00:27N 39°00' E 117°47'0 0.0
2015-Aug-22 23:33N 39°00' E 117°47'0 0.0
2015-Aug-22 22:21N 39°00' E 117°47'0 0.0
2015-Aug-22 21:27N 39°00' E 117°47'0 0.0
2015-Aug-22 20:27N 39°00' E 117°47'0 0.0
2015-Aug-22 19:33N 39°00' E 117°47'0 0.0
2015-Aug-22 18:33N 39°00' E 117°47'0 0.0
2015-Aug-22 17:33N 39°00' E 117°47'0 0.0
2015-Aug-22 16:27N 39°00' E 117°47'0 0.0
2015-Aug-22 15:33N 39°00' E 117°47'0 0.0
2015-Aug-22 14:33N 39°00' E 117°47'0 0.0
2015-Aug-22 13:33N 39°00' E 117°47'0 0.0
2015-Aug-22 12:33N 39°00' E 117°47'0 0.0
2015-Aug-22 11:27N 39°00' E 117°47'0 0.0
2015-Aug-22 10:33N 39°00' E 117°47'0 0.0
2015-Aug-22 09:21N 39°00' E 117°47'0 0.0
2015-Aug-22 08:33N 39°00' E 117°47'0 0.0
2015-Aug-22 07:33N 39°00' E 117°47'0 0.0
2015-Aug-22 06:33N 39°00' E 117°47'5 4.6
2015-Aug-22 05:34N 38°58' E 117°52'15614.2
2015-Aug-21 18:33N 38°29' E 121°09'1817.5
2015-Aug-21 17:32N 38°13' E 121°16'1717.3
2015-Aug-21 16:33N 37°56' E 121°23'1515.6
2015-Aug-21 15:33N 37°41' E 121°27'7 6.9
2015-Aug-21 14:33N 37°35' E 121°23'  

Dump ship's entire track history